sensor_id;sensor_type;location;lat;lon;timestamp;P1;durP1;ratioP1;P2;durP2;ratioP2
10985;SDS011;5546;48.714;8.738;2022-09-01T00:01:33;10.97;;;9.57;;
10985;SDS011;5546;48.714;8.738;2022-09-01T00:04:01;15.53;;;11.13;;
10985;SDS011;5546;48.714;8.738;2022-09-01T00:06:29;36.87;;;12.10;;
10985;SDS011;5546;48.714;8.738;2022-09-01T00:08:57;17.57;;;11.37;;
10985;SDS011;5546;48.714;8.738;2022-09-01T00:11:32;11.90;;;10.83;;
10985;SDS011;5546;48.714;8.738;2022-09-01T00:13:59;14.50;;;11.27;;
10985;SDS011;5546;48.714;8.738;2022-09-01T00:16:26;11.90;;;10.70;;
10985;SDS011;5546;48.714;8.738;2022-09-01T00:18:52;15.27;;;11.20;;
10985;SDS011;5546;48.714;8.738;2022-09-01T00:21:21;12.17;;;10.97;;
10985;SDS011;5546;48.714;8.738;2022-09-01T00:23:49;11.60;;;10.60;;
10985;SDS011;5546;48.714;8.738;2022-09-01T00:26:15;12.70;;;11.43;;
10985;SDS011;5546;48.714;8.738;2022-09-01T00:28:41;13.00;;;11.80;;
10985;SDS011;5546;48.714;8.738;2022-09-01T00:31:07;13.77;;;11.60;;
10985;SDS011;5546;48.714;8.738;2022-09-01T00:33:33;20.50;;;11.40;;
10985;SDS011;5546;48.714;8.738;2022-09-01T00:35:59;13.13;;;11.57;;
10985;SDS011;5546;48.714;8.738;2022-09-01T00:38:25;13.60;;;10.70;;
10985;SDS011;5546;48.714;8.738;2022-09-01T00:40:51;13.53;;;11.30;;
10985;SDS011;5546;48.714;8.738;2022-09-01T00:44:00;11.67;;;10.67;;
10985;SDS011;5546;48.714;8.738;2022-09-01T00:46:10;13.33;;;10.33;;
10985;SDS011;5546;48.714;8.738;2022-09-01T00:48:38;13.43;;;11.53;;
10985;SDS011;5546;48.714;8.738;2022-09-01T00:51:04;15.47;;;12.23;;
10985;SDS011;5546;48.714;8.738;2022-09-01T00:53:31;11.97;;;10.67;;
10985;SDS011;5546;48.714;8.738;2022-09-01T00:55:58;13.43;;;11.03;;
10985;SDS011;5546;48.714;8.738;2022-09-01T00:58:25;13.33;;;12.03;;
10985;SDS011;5546;48.714;8.738;2022-09-01T01:00:51;16.23;;;11.30;;
10985;SDS011;5546;48.714;8.738;2022-09-01T01:03:17;12.43;;;11.20;;
10985;SDS011;5546;48.714;8.738;2022-09-01T01:05:47;12.90;;;11.60;;
10985;SDS011;5546;48.714;8.738;2022-09-01T01:08:18;15.10;;;11.53;;
10985;SDS011;5546;48.714;8.738;2022-09-01T01:10:51;13.83;;;11.70;;
10985;SDS011;5546;48.714;8.738;2022-09-01T01:13:17;12.50;;;11.30;;
10985;SDS011;5546;48.714;8.738;2022-09-01T01:15:44;14.17;;;11.70;;
10985;SDS011;5546;48.714;8.738;2022-09-01T01:18:13;13.07;;;11.80;;
10985;SDS011;5546;48.714;8.738;2022-09-01T01:20:40;13.40;;;12.00;;
10985;SDS011;5546;48.714;8.738;2022-09-01T01:26:12;12.40;;;11.30;;
10985;SDS011;5546;48.714;8.738;2022-09-01T01:28:39;12.20;;;11.10;;
10985;SDS011;5546;48.714;8.738;2022-09-01T01:31:07;10.50;;;9.60;;
10985;SDS011;5546;48.714;8.738;2022-09-01T01:33:44;10.97;;;9.93;;
10985;SDS011;5546;48.714;8.738;2022-09-01T01:38:44;9.90;;;9.10;;
10985;SDS011;5546;48.714;8.738;2022-09-01T01:41:11;12.07;;;9.37;;
10985;SDS011;5546;48.714;8.738;2022-09-01T01:43:38;9.13;;;8.33;;
10985;SDS011;5546;48.714;8.738;2022-09-01T01:46:05;10.20;;;9.20;;
10985;SDS011;5546;48.714;8.738;2022-09-01T01:48:33;10.60;;;9.50;;
10985;SDS011;5546;48.714;8.738;2022-09-01T01:51:02;9.50;;;8.60;;
10985;SDS011;5546;48.714;8.738;2022-09-01T01:53:28;13.53;;;10.00;;
10985;SDS011;5546;48.714;8.738;2022-09-01T01:55:54;12.00;;;9.37;;
10985;SDS011;5546;48.714;8.738;2022-09-01T01:58:22;16.03;;;9.30;;
10985;SDS011;5546;48.714;8.738;2022-09-01T02:00:49;9.77;;;8.90;;
10985;SDS011;5546;48.714;8.738;2022-09-01T02:03:17;8.97;;;8.17;;
10985;SDS011;5546;48.714;8.738;2022-09-01T02:05:46;7.67;;;7.07;;
10985;SDS011;5546;48.714;8.738;2022-09-01T02:08:14;7.43;;;6.73;;
10985;SDS011;5546;48.714;8.738;2022-09-01T02:10:47;7.17;;;6.53;;
10985;SDS011;5546;48.714;8.738;2022-09-01T02:13:15;7.00;;;6.43;;
10985;SDS011;5546;48.714;8.738;2022-09-01T02:15:43;7.07;;;6.40;;
10985;SDS011;5546;48.714;8.738;2022-09-01T02:18:12;6.93;;;6.33;;
10985;SDS011;5546;48.714;8.738;2022-09-01T02:20:48;7.67;;;7.07;;
10985;SDS011;5546;48.714;8.738;2022-09-01T02:23:15;7.93;;;7.13;;
10985;SDS011;5546;48.714;8.738;2022-09-01T02:25:49;7.67;;;7.07;;
10985;SDS011;5546;48.714;8.738;2022-09-01T02:28:20;7.80;;;7.00;;
10985;SDS011;5546;48.714;8.738;2022-09-01T02:30:48;8.23;;;6.87;;
10985;SDS011;5546;48.714;8.738;2022-09-01T02:33:16;7.10;;;6.40;;
10985;SDS011;5546;48.714;8.738;2022-09-01T02:35:50;9.03;;;7.50;;
10985;SDS011;5546;48.714;8.738;2022-09-01T02:38:18;10.73;;;9.63;;
10985;SDS011;5546;48.714;8.738;2022-09-01T02:40:45;11.50;;;10.40;;
10985;SDS011;5546;48.714;8.738;2022-09-01T02:43:12;15.20;;;11.87;;
10985;SDS011;5546;48.714;8.738;2022-09-01T02:45:45;15.83;;;13.37;;
10985;SDS011;5546;48.714;8.738;2022-09-01T02:48:11;25.90;;;14.70;;
10985;SDS011;5546;48.714;8.738;2022-09-01T02:50:39;19.80;;;15.03;;
10985;SDS011;5546;48.714;8.738;2022-09-01T02:53:05;18.80;;;15.60;;
10985;SDS011;5546;48.714;8.738;2022-09-01T02:55:37;22.97;;;15.07;;
10985;SDS011;5546;48.714;8.738;2022-09-01T02:58:03;22.97;;;14.23;;
10985;SDS011;5546;48.714;8.738;2022-09-01T03:00:32;18.83;;;13.97;;
10985;SDS011;5546;48.714;8.738;2022-09-01T03:03:03;20.60;;;14.03;;
10985;SDS011;5546;48.714;8.738;2022-09-01T03:05:30;18.33;;;14.63;;
10985;SDS011;5546;48.714;8.738;2022-09-01T03:07:59;20.67;;;14.53;;
10985;SDS011;5546;48.714;8.738;2022-09-01T03:10:29;22.53;;;14.60;;
10985;SDS011;5546;48.714;8.738;2022-09-01T03:13:00;27.07;;;15.10;;
10985;SDS011;5546;48.714;8.738;2022-09-01T03:15:28;24.27;;;14.90;;
10985;SDS011;5546;48.714;8.738;2022-09-01T03:17:54;23.63;;;16.07;;
10985;SDS011;5546;48.714;8.738;2022-09-01T03:20:20;24.63;;;17.40;;
10985;SDS011;5546;48.714;8.738;2022-09-01T03:22:46;22.70;;;16.27;;
10985;SDS011;5546;48.714;8.738;2022-09-01T03:25:13;26.17;;;15.97;;
10985;SDS011;5546;48.714;8.738;2022-09-01T03:27:39;20.57;;;14.77;;
10985;SDS011;5546;48.714;8.738;2022-09-01T03:30:04;25.73;;;15.40;;
10985;SDS011;5546;48.714;8.738;2022-09-01T03:32:31;22.60;;;15.03;;
10985;SDS011;5546;48.714;8.738;2022-09-01T03:34:56;20.93;;;17.77;;
10985;SDS011;5546;48.714;8.738;2022-09-01T03:37:22;20.13;;;17.10;;
10985;SDS011;5546;48.714;8.738;2022-09-01T03:39:48;21.47;;;16.40;;
10985;SDS011;5546;48.714;8.738;2022-09-01T03:42:13;18.67;;;16.57;;
10985;SDS011;5546;48.714;8.738;2022-09-01T03:44:49;21.17;;;18.87;;
10985;SDS011;5546;48.714;8.738;2022-09-01T03:47:16;18.70;;;16.80;;
10985;SDS011;5546;48.714;8.738;2022-09-01T03:49:42;19.33;;;17.43;;
10985;SDS011;5546;48.714;8.738;2022-09-01T03:52:07;18.63;;;16.73;;
10985;SDS011;5546;48.714;8.738;2022-09-01T03:54:36;19.30;;;17.40;;
10985;SDS011;5546;48.714;8.738;2022-09-01T03:57:02;19.47;;;17.40;;
10985;SDS011;5546;48.714;8.738;2022-09-01T03:59:30;20.60;;;18.40;;
10985;SDS011;5546;48.714;8.738;2022-09-01T04:01:55;20.97;;;18.77;;
10985;SDS011;5546;48.714;8.738;2022-09-01T04:04:22;21.83;;;19.60;;
10985;SDS011;5546;48.714;8.738;2022-09-01T04:06:48;21.20;;;18.93;;
10985;SDS011;5546;48.714;8.738;2022-09-01T04:09:14;22.57;;;19.23;;
10985;SDS011;5546;48.714;8.738;2022-09-01T04:11:39;22.03;;;19.67;;
10985;SDS011;5546;48.714;8.738;2022-09-01T04:14:05;23.03;;;20.17;;
10985;SDS011;5546;48.714;8.738;2022-09-01T04:16:32;23.83;;;21.33;;
10985;SDS011;5546;48.714;8.738;2022-09-01T04:19:18;21.47;;;19.07;;
10985;SDS011;5546;48.714;8.738;2022-09-01T04:21:50;21.23;;;18.47;;
10985;SDS011;5546;48.714;8.738;2022-09-01T04:24:20;24.17;;;21.57;;
10985;SDS011;5546;48.714;8.738;2022-09-01T04:26:51;21.97;;;19.70;;
10985;SDS011;5546;48.714;8.738;2022-09-01T04:29:18;23.77;;;21.37;;
10985;SDS011;5546;48.714;8.738;2022-09-01T04:31:51;24.10;;;21.07;;
10985;SDS011;5546;48.714;8.738;2022-09-01T04:34:19;27.07;;;21.47;;
10985;SDS011;5546;48.714;8.738;2022-09-01T04:36:46;24.80;;;22.20;;
10985;SDS011;5546;48.714;8.738;2022-09-01T04:39:12;25.90;;;22.27;;
10985;SDS011;5546;48.714;8.738;2022-09-01T04:41:40;24.77;;;22.03;;
10985;SDS011;5546;48.714;8.738;2022-09-01T04:44:08;23.93;;;21.33;;
10985;SDS011;5546;48.714;8.738;2022-09-01T04:46:35;24.93;;;22.27;;
10985;SDS011;5546;48.714;8.738;2022-09-01T04:49:03;24.90;;;21.80;;
10985;SDS011;5546;48.714;8.738;2022-09-01T04:51:33;25.83;;;21.43;;
10985;SDS011;5546;48.714;8.738;2022-09-01T04:54:08;24.33;;;21.73;;
10985;SDS011;5546;48.714;8.738;2022-09-01T04:56:38;23.93;;;21.33;;
10985;SDS011;5546;48.714;8.738;2022-09-01T04:59:07;25.33;;;21.93;;
10985;SDS011;5546;48.714;8.738;2022-09-01T05:01:34;23.47;;;20.97;;
10985;SDS011;5546;48.714;8.738;2022-09-01T05:04:14;24.97;;;21.43;;
10985;SDS011;5546;48.714;8.738;2022-09-01T05:06:42;24.60;;;21.90;;
10985;SDS011;5546;48.714;8.738;2022-09-01T05:09:11;23.10;;;20.70;;
10985;SDS011;5546;48.714;8.738;2022-09-01T05:11:38;23.23;;;20.73;;
10985;SDS011;5546;48.714;8.738;2022-09-01T05:14:05;24.57;;;20.50;;
10985;SDS011;5546;48.714;8.738;2022-09-01T05:16:31;24.13;;;21.53;;
10985;SDS011;5546;48.714;8.738;2022-09-01T05:18:58;24.10;;;21.57;;
10985;SDS011;5546;48.714;8.738;2022-09-01T05:21:25;24.07;;;21.33;;
10985;SDS011;5546;48.714;8.738;2022-09-01T05:23:53;23.43;;;21.03;;
10985;SDS011;5546;48.714;8.738;2022-09-01T05:26:23;24.33;;;21.37;;
10985;SDS011;5546;48.714;8.738;2022-09-01T05:28:52;24.70;;;21.20;;
10985;SDS011;5546;48.714;8.738;2022-09-01T05:31:19;23.83;;;21.17;;
10985;SDS011;5546;48.714;8.738;2022-09-01T05:33:46;24.97;;;20.70;;
10985;SDS011;5546;48.714;8.738;2022-09-01T05:36:15;24.57;;;21.37;;
10985;SDS011;5546;48.714;8.738;2022-09-01T05:38:43;24.37;;;20.37;;
10985;SDS011;5546;48.714;8.738;2022-09-01T05:41:10;23.67;;;21.10;;
10985;SDS011;5546;48.714;8.738;2022-09-01T05:43:39;24.43;;;20.60;;
10985;SDS011;5546;48.714;8.738;2022-09-01T05:46:11;24.10;;;21.50;;
10985;SDS011;5546;48.714;8.738;2022-09-01T05:48:39;22.27;;;19.87;;
10985;SDS011;5546;48.714;8.738;2022-09-01T05:51:06;19.80;;;17.63;;
10985;SDS011;5546;48.714;8.738;2022-09-01T05:53:32;19.07;;;17.13;;
10985;SDS011;5546;48.714;8.738;2022-09-01T05:55:58;19.00;;;17.03;;
10985;SDS011;5546;48.714;8.738;2022-09-01T05:58:30;19.07;;;17.07;;
10985;SDS011;5546;48.714;8.738;2022-09-01T06:00:57;18.07;;;16.27;;
10985;SDS011;5546;48.714;8.738;2022-09-01T06:03:23;19.70;;;17.47;;
10985;SDS011;5546;48.714;8.738;2022-09-01T06:05:50;18.47;;;16.57;;
10985;SDS011;5546;48.714;8.738;2022-09-01T06:08:21;18.87;;;16.87;;
10985;SDS011;5546;48.714;8.738;2022-09-01T06:10:49;18.00;;;16.30;;
10985;SDS011;5546;48.714;8.738;2022-09-01T06:13:16;17.10;;;15.37;;
10985;SDS011;5546;48.714;8.738;2022-09-01T06:15:46;18.07;;;16.23;;
10985;SDS011;5546;48.714;8.738;2022-09-01T06:18:12;17.95;;;16.15;;
10985;SDS011;5546;48.714;8.738;2022-09-01T06:20:41;18.13;;;16.23;;
10985;SDS011;5546;48.714;8.738;2022-09-01T06:23:08;17.73;;;16.02;;
10985;SDS011;5546;48.714;8.738;2022-09-01T06:25:38;16.07;;;14.47;;
10985;SDS011;5546;48.714;8.738;2022-09-01T06:28:11;18.70;;;16.83;;
10985;SDS011;5546;48.714;8.738;2022-09-01T06:30:40;18.50;;;16.33;;
10985;SDS011;5546;48.714;8.738;2022-09-01T06:33:06;16.70;;;15.00;;
10985;SDS011;5546;48.714;8.738;2022-09-01T06:35:35;18.07;;;16.17;;
10985;SDS011;5546;48.714;8.738;2022-09-01T06:38:02;17.03;;;15.23;;
10985;SDS011;5546;48.714;8.738;2022-09-01T06:40:28;16.53;;;14.87;;
10985;SDS011;5546;48.714;8.738;2022-09-01T06:42:54;15.63;;;14.13;;
10985;SDS011;5546;48.714;8.738;2022-09-01T06:45:21;16.23;;;14.73;;
10985;SDS011;5546;48.714;8.738;2022-09-01T06:47:48;17.00;;;15.30;;
10985;SDS011;5546;48.714;8.738;2022-09-01T06:50:16;16.57;;;14.67;;
10985;SDS011;5546;48.714;8.738;2022-09-01T06:52:44;16.73;;;15.03;;
10985;SDS011;5546;48.714;8.738;2022-09-01T06:55:11;15.97;;;14.37;;
10985;SDS011;5546;48.714;8.738;2022-09-01T06:57:38;14.20;;;12.90;;
10985;SDS011;5546;48.714;8.738;2022-09-01T07:00:09;14.82;;;13.32;;
10985;SDS011;5546;48.714;8.738;2022-09-01T07:02:45;15.00;;;13.50;;
10985;SDS011;5546;48.714;8.738;2022-09-01T07:05:12;14.75;;;13.35;;
10985;SDS011;5546;48.714;8.738;2022-09-01T07:07:45;15.35;;;13.85;;
10985;SDS011;5546;48.714;8.738;2022-09-01T07:10:15;13.18;;;11.90;;
10985;SDS011;5546;48.714;8.738;2022-09-01T07:12:44;13.07;;;11.85;;
10985;SDS011;5546;48.714;8.738;2022-09-01T07:15:10;12.65;;;11.45;;
10985;SDS011;5546;48.714;8.738;2022-09-01T07:17:39;12.05;;;10.85;;
10985;SDS011;5546;48.714;8.738;2022-09-01T07:20:06;11.57;;;10.57;;
10985;SDS011;5546;48.714;8.738;2022-09-01T07:22:35;11.07;;;9.95;;
10985;SDS011;5546;48.714;8.738;2022-09-01T07:25:00;11.50;;;10.30;;
10985;SDS011;5546;48.714;8.738;2022-09-01T07:27:26;11.40;;;10.30;;
10985;SDS011;5546;48.714;8.738;2022-09-01T07:29:52;11.52;;;10.45;;
10985;SDS011;5546;48.714;8.738;2022-09-01T07:32:20;11.93;;;10.73;;
10985;SDS011;5546;48.714;8.738;2022-09-01T07:34:46;11.38;;;10.23;;
10985;SDS011;5546;48.714;8.738;2022-09-01T07:37:11;12.23;;;11.13;;
10985;SDS011;5546;48.714;8.738;2022-09-01T07:39:37;12.27;;;10.88;;
10985;SDS011;5546;48.714;8.738;2022-09-01T07:42:08;13.40;;;11.02;;
10985;SDS011;5546;48.714;8.738;2022-09-01T07:44:36;11.60;;;10.50;;
10985;SDS011;5546;48.714;8.738;2022-09-01T07:47:03;11.00;;;10.02;;
10985;SDS011;5546;48.714;8.738;2022-09-01T07:49:33;11.02;;;9.98;;
10985;SDS011;5546;48.714;8.738;2022-09-01T07:52:01;12.05;;;10.95;;
10985;SDS011;5546;48.714;8.738;2022-09-01T07:54:29;11.50;;;10.50;;
10985;SDS011;5546;48.714;8.738;2022-09-01T07:56:55;12.77;;;11.48;;
10985;SDS011;5546;48.714;8.738;2022-09-01T07:59:21;13.48;;;12.18;;
10985;SDS011;5546;48.714;8.738;2022-09-01T08:01:47;12.90;;;11.73;;
10985;SDS011;5546;48.714;8.738;2022-09-01T08:04:13;13.75;;;12.35;;
10985;SDS011;5546;48.714;8.738;2022-09-01T08:06:39;12.18;;;11.07;;
10985;SDS011;5546;48.714;8.738;2022-09-01T08:09:05;13.10;;;11.77;;
10985;SDS011;5546;48.714;8.738;2022-09-01T08:11:31;12.45;;;11.15;;
10985;SDS011;5546;48.714;8.738;2022-09-01T08:13:57;11.75;;;10.30;;
10985;SDS011;5546;48.714;8.738;2022-09-01T08:16:24;12.23;;;10.93;;
10985;SDS011;5546;48.714;8.738;2022-09-01T08:18:54;11.45;;;10.45;;
10985;SDS011;5546;48.714;8.738;2022-09-01T08:21:21;12.07;;;11.00;;
10985;SDS011;5546;48.714;8.738;2022-09-01T08:23:48;11.55;;;10.48;;
10985;SDS011;5546;48.714;8.738;2022-09-01T08:26:16;11.88;;;10.77;;
10985;SDS011;5546;48.714;8.738;2022-09-01T08:28:43;11.10;;;10.10;;
10985;SDS011;5546;48.714;8.738;2022-09-01T08:31:10;10.35;;;9.45;;
10985;SDS011;5546;48.714;8.738;2022-09-01T08:33:37;10.70;;;9.80;;
10985;SDS011;5546;48.714;8.738;2022-09-01T08:36:06;10.50;;;9.48;;
10985;SDS011;5546;48.714;8.738;2022-09-01T08:38:32;10.35;;;9.48;;
10985;SDS011;5546;48.714;8.738;2022-09-01T08:40:58;10.00;;;9.00;;
10985;SDS011;5546;48.714;8.738;2022-09-01T08:46:13;10.85;;;9.85;;
10985;SDS011;5546;48.714;8.738;2022-09-01T08:48:49;10.10;;;9.20;;
10985;SDS011;5546;48.714;8.738;2022-09-01T08:51:22;9.55;;;8.65;;
10985;SDS011;5546;48.714;8.738;2022-09-01T08:53:58;7.13;;;6.13;;
10985;SDS011;5546;48.714;8.738;2022-09-01T08:56:28;5.50;;;5.00;;
10985;SDS011;5546;48.714;8.738;2022-09-01T08:58:56;5.63;;;4.45;;
10985;SDS011;5546;48.714;8.738;2022-09-01T09:01:24;4.60;;;4.22;;
10985;SDS011;5546;48.714;8.738;2022-09-01T09:04:19;4.78;;;4.30;;
10985;SDS011;5546;48.714;8.738;2022-09-01T09:07:00;7.43;;;4.22;;
10985;SDS011;5546;48.714;8.738;2022-09-01T09:09:44;5.78;;;5.18;;
10985;SDS011;5546;48.714;8.738;2022-09-01T09:15:00;7.00;;;6.30;;
10985;SDS011;5546;48.714;8.738;2022-09-01T09:17:42;7.20;;;6.47;;
10985;SDS011;5546;48.714;8.738;2022-09-01T09:20:17;8.13;;;6.70;;
10985;SDS011;5546;48.714;8.738;2022-09-01T09:22:43;6.90;;;5.68;;
10985;SDS011;5546;48.714;8.738;2022-09-01T09:25:13;6.78;;;6.18;;
10985;SDS011;5546;48.714;8.738;2022-09-01T09:27:45;7.05;;;6.13;;
10985;SDS011;5546;48.714;8.738;2022-09-01T09:30:22;6.00;;;5.50;;
10985;SDS011;5546;48.714;8.738;2022-09-01T09:32:52;5.10;;;4.60;;
10985;SDS011;5546;48.714;8.738;2022-09-01T09:43:29;3.70;;;3.40;;
10985;SDS011;5546;48.714;8.738;2022-09-01T09:51:44;4.32;;;3.92;;
10985;SDS011;5546;48.714;8.738;2022-09-01T09:56:42;4.30;;;3.90;;
10985;SDS011;5546;48.714;8.738;2022-09-01T09:59:22;4.65;;;3.92;;
10985;SDS011;5546;48.714;8.738;2022-09-01T10:01:53;5.72;;;3.88;;
10985;SDS011;5546;48.714;8.738;2022-09-01T10:04:39;4.85;;;4.45;;
10985;SDS011;5546;48.714;8.738;2022-09-01T10:10:08;5.07;;;4.57;;
10985;SDS011;5546;48.714;8.738;2022-09-01T10:13:02;5.20;;;4.72;;
10985;SDS011;5546;48.714;8.738;2022-09-01T10:15:29;4.13;;;3.83;;
10985;SDS011;5546;48.714;8.738;2022-09-01T10:17:59;5.10;;;4.60;;
10985;SDS011;5546;48.714;8.738;2022-09-01T10:20:31;5.50;;;4.32;;
10985;SDS011;5546;48.714;8.738;2022-09-01T10:23:01;4.95;;;4.55;;
10985;SDS011;5546;48.714;8.738;2022-09-01T10:25:27;5.00;;;4.60;;
10985;SDS011;5546;48.714;8.738;2022-09-01T10:28:14;5.18;;;4.68;;
10985;SDS011;5546;48.714;8.738;2022-09-01T10:30:43;5.97;;;4.43;;
10985;SDS011;5546;48.714;8.738;2022-09-01T10:33:11;4.70;;;4.30;;
10985;SDS011;5546;48.714;8.738;2022-09-01T10:35:44;4.72;;;4.20;;
10985;SDS011;5546;48.714;8.738;2022-09-01T10:38:22;4.50;;;4.10;;
10985;SDS011;5546;48.714;8.738;2022-09-01T10:40:51;4.72;;;4.05;;
10985;SDS011;5546;48.714;8.738;2022-09-01T10:48:46;5.43;;;3.80;;
10985;SDS011;5546;48.714;8.738;2022-09-01T10:53:43;5.22;;;4.72;;
10985;SDS011;5546;48.714;8.738;2022-09-01T11:04:14;3.50;;;3.20;;
10985;SDS011;5546;48.714;8.738;2022-09-01T11:14:45;3.35;;;3.00;;
10985;SDS011;5546;48.714;8.738;2022-09-01T11:17:17;4.53;;;3.10;;
10985;SDS011;5546;48.714;8.738;2022-09-01T11:20:28;3.60;;;3.30;;
10985;SDS011;5546;48.714;8.738;2022-09-01T11:33:26;3.53;;;3.22;;
10985;SDS011;5546;48.714;8.738;2022-09-01T11:36:03;3.97;;;3.35;;
10985;SDS011;5546;48.714;8.738;2022-09-01T11:38:33;3.15;;;2.85;;
10985;SDS011;5546;48.714;8.738;2022-09-01T11:41:18;3.78;;;3.10;;
10985;SDS011;5546;48.714;8.738;2022-09-01T11:43:50;3.47;;;3.17;;
10985;SDS011;5546;48.714;8.738;2022-09-01T11:46:20;3.10;;;2.90;;
10985;SDS011;5546;48.714;8.738;2022-09-01T11:48:50;3.08;;;2.88;;
10985;SDS011;5546;48.714;8.738;2022-09-01T11:51:17;3.58;;;2.67;;
10985;SDS011;5546;48.714;8.738;2022-09-01T11:53:42;3.00;;;2.70;;
10985;SDS011;5546;48.714;8.738;2022-09-01T11:56:19;3.10;;;2.75;;
10985;SDS011;5546;48.714;8.738;2022-09-01T11:58:52;3.05;;;2.75;;
10985;SDS011;5546;48.714;8.738;2022-09-01T12:03:57;2.95;;;2.63;;
10985;SDS011;5546;48.714;8.738;2022-09-01T12:07:10;3.10;;;2.78;;
10985;SDS011;5546;48.714;8.738;2022-09-01T12:09:47;2.92;;;2.72;;
10985;SDS011;5546;48.714;8.738;2022-09-01T12:12:26;3.05;;;2.70;;
10985;SDS011;5546;48.714;8.738;2022-09-01T12:15:09;2.63;;;2.38;;
10985;SDS011;5546;48.714;8.738;2022-09-01T12:17:38;2.88;;;2.58;;
10985;SDS011;5546;48.714;8.738;2022-09-01T12:22:53;2.92;;;2.38;;
10985;SDS011;5546;48.714;8.738;2022-09-01T12:25:27;2.90;;;2.70;;
10985;SDS011;5546;48.714;8.738;2022-09-01T12:27:55;2.63;;;2.42;;
10985;SDS011;5546;48.714;8.738;2022-09-01T12:30:23;2.72;;;2.53;;
10985;SDS011;5546;48.714;8.738;2022-09-01T12:32:49;2.67;;;2.42;;
10985;SDS011;5546;48.714;8.738;2022-09-01T12:35:18;4.32;;;2.80;;
10985;SDS011;5546;48.714;8.738;2022-09-01T12:37:46;2.72;;;2.50;;
10985;SDS011;5546;48.714;8.738;2022-09-01T12:40:29;2.53;;;2.33;;
10985;SDS011;5546;48.714;8.738;2022-09-01T12:42:56;2.88;;;2.60;;
10985;SDS011;5546;48.714;8.738;2022-09-01T12:45:35;2.60;;;2.13;;
10985;SDS011;5546;48.714;8.738;2022-09-01T12:48:01;4.38;;;2.20;;
10985;SDS011;5546;48.714;8.738;2022-09-01T12:55:30;2.42;;;2.22;;
10985;SDS011;5546;48.714;8.738;2022-09-01T12:57:59;2.25;;;2.10;;
10985;SDS011;5546;48.714;8.738;2022-09-01T13:00:27;2.72;;;2.20;;
10985;SDS011;5546;48.714;8.738;2022-09-01T13:05:23;3.38;;;2.35;;
10985;SDS011;5546;48.714;8.738;2022-09-01T13:07:52;4.57;;;2.50;;
10985;SDS011;5546;48.714;8.738;2022-09-01T13:10:19;3.53;;;2.58;;
10985;SDS011;5546;48.714;8.738;2022-09-01T13:12:47;2.90;;;2.40;;
10985;SDS011;5546;48.714;8.738;2022-09-01T13:15:13;3.38;;;2.47;;
10985;SDS011;5546;48.714;8.738;2022-09-01T13:17:38;2.58;;;2.38;;
10985;SDS011;5546;48.714;8.738;2022-09-01T13:20:04;2.55;;;2.35;;
10985;SDS011;5546;48.714;8.738;2022-09-01T13:22:31;3.13;;;1.88;;
10985;SDS011;5546;48.714;8.738;2022-09-01T13:24:56;2.28;;;1.90;;
10985;SDS011;5546;48.714;8.738;2022-09-01T13:27:22;2.78;;;2.20;;
10985;SDS011;5546;48.714;8.738;2022-09-01T13:29:48;2.50;;;2.30;;
10985;SDS011;5546;48.714;8.738;2022-09-01T13:32:15;2.53;;;2.33;;
10985;SDS011;5546;48.714;8.738;2022-09-01T13:34:42;2.47;;;2.28;;
10985;SDS011;5546;48.714;8.738;2022-09-01T13:37:08;2.53;;;2.20;;
10985;SDS011;5546;48.714;8.738;2022-09-01T13:39:33;2.50;;;2.30;;
10985;SDS011;5546;48.714;8.738;2022-09-01T13:41:59;2.13;;;1.90;;
10985;SDS011;5546;48.714;8.738;2022-09-01T13:44:24;2.30;;;2.10;;
10985;SDS011;5546;48.714;8.738;2022-09-01T13:46:50;2.55;;;2.20;;
10985;SDS011;5546;48.714;8.738;2022-09-01T13:49:16;8.27;;;3.00;;
10985;SDS011;5546;48.714;8.738;2022-09-01T13:51:41;2.45;;;2.13;;
10985;SDS011;5546;48.714;8.738;2022-09-01T13:54:07;3.38;;;3.05;;
10985;SDS011;5546;48.714;8.738;2022-09-01T13:56:32;3.03;;;2.15;;
10985;SDS011;5546;48.714;8.738;2022-09-01T13:58:59;2.38;;;2.17;;
10985;SDS011;5546;48.714;8.738;2022-09-01T14:01:24;2.25;;;2.05;;
10985;SDS011;5546;48.714;8.738;2022-09-01T14:03:50;2.47;;;2.22;;
10985;SDS011;5546;48.714;8.738;2022-09-01T14:06:16;2.22;;;2.03;;
10985;SDS011;5546;48.714;8.738;2022-09-01T14:08:42;2.08;;;1.98;;
10985;SDS011;5546;48.714;8.738;2022-09-01T14:11:07;2.63;;;2.42;;
10985;SDS011;5546;48.714;8.738;2022-09-01T14:13:39;3.92;;;2.50;;
10985;SDS011;5546;48.714;8.738;2022-09-01T14:16:09;2.60;;;2.40;;
10985;SDS011;5546;48.714;8.738;2022-09-01T14:18:35;2.67;;;2.47;;
10985;SDS011;5546;48.714;8.738;2022-09-01T14:21:01;4.80;;;2.38;;
10985;SDS011;5546;48.714;8.738;2022-09-01T14:23:27;3.30;;;2.60;;
10985;SDS011;5546;48.714;8.738;2022-09-01T14:25:52;2.75;;;2.53;;
10985;SDS011;5546;48.714;8.738;2022-09-01T14:28:19;2.40;;;2.20;;
10985;SDS011;5546;48.714;8.738;2022-09-01T14:30:46;2.67;;;2.47;;
10985;SDS011;5546;48.714;8.738;2022-09-01T14:33:13;3.53;;;2.60;;
10985;SDS011;5546;48.714;8.738;2022-09-01T14:35:39;2.55;;;2.30;;
10985;SDS011;5546;48.714;8.738;2022-09-01T14:38:07;2.90;;;2.70;;
10985;SDS011;5546;48.714;8.738;2022-09-01T14:40:34;2.80;;;2.55;;
10985;SDS011;5546;48.714;8.738;2022-09-01T14:43:02;2.80;;;2.60;;
10985;SDS011;5546;48.714;8.738;2022-09-01T14:45:33;2.97;;;2.75;;
10985;SDS011;5546;48.714;8.738;2022-09-01T14:48:00;3.08;;;2.78;;
10985;SDS011;5546;48.714;8.738;2022-09-01T14:50:27;3.45;;;3.17;;
10985;SDS011;5546;48.714;8.738;2022-09-01T14:52:56;3.00;;;2.70;;
10985;SDS011;5546;48.714;8.738;2022-09-01T14:55:23;2.90;;;2.70;;
10985;SDS011;5546;48.714;8.738;2022-09-01T14:57:51;2.78;;;2.58;;
10985;SDS011;5546;48.714;8.738;2022-09-01T15:00:18;3.20;;;2.90;;
10985;SDS011;5546;48.714;8.738;2022-09-01T15:02:44;2.60;;;2.40;;
10985;SDS011;5546;48.714;8.738;2022-09-01T15:05:11;3.00;;;2.78;;
10985;SDS011;5546;48.714;8.738;2022-09-01T15:07:37;4.22;;;2.85;;
10985;SDS011;5546;48.714;8.738;2022-09-01T15:10:03;3.35;;;3.05;;
10985;SDS011;5546;48.714;8.738;2022-09-01T15:12:31;2.72;;;2.53;;
10985;SDS011;5546;48.714;8.738;2022-09-01T15:14:57;2.90;;;2.70;;
10985;SDS011;5546;48.714;8.738;2022-09-01T15:17:23;4.13;;;2.80;;
10985;SDS011;5546;48.714;8.738;2022-09-01T15:19:49;3.65;;;2.60;;
10985;SDS011;5546;48.714;8.738;2022-09-01T15:22:15;3.28;;;3.00;;
10985;SDS011;5546;48.714;8.738;2022-09-01T15:24:41;3.95;;;2.80;;
10985;SDS011;5546;48.714;8.738;2022-09-01T15:27:07;4.45;;;3.22;;
10985;SDS011;5546;48.714;8.738;2022-09-01T15:29:35;3.28;;;2.97;;
10985;SDS011;5546;48.714;8.738;2022-09-01T15:32:09;3.33;;;3.03;;
10985;SDS011;5546;48.714;8.738;2022-09-01T15:34:40;3.28;;;3.00;;
10985;SDS011;5546;48.714;8.738;2022-09-01T15:37:05;3.50;;;3.20;;
10985;SDS011;5546;48.714;8.738;2022-09-01T15:39:31;3.15;;;2.85;;
10985;SDS011;5546;48.714;8.738;2022-09-01T15:41:57;3.90;;;2.92;;
10985;SDS011;5546;48.714;8.738;2022-09-01T15:44:23;3.70;;;2.90;;
10985;SDS011;5546;48.714;8.738;2022-09-01T15:46:48;3.10;;;2.90;;
10985;SDS011;5546;48.714;8.738;2022-09-01T15:49:15;3.40;;;3.10;;
10985;SDS011;5546;48.714;8.738;2022-09-01T15:51:42;5.57;;;3.00;;
10985;SDS011;5546;48.714;8.738;2022-09-01T15:56:38;3.85;;;2.97;;
10985;SDS011;5546;48.714;8.738;2022-09-01T15:59:05;3.17;;;2.90;;
10985;SDS011;5546;48.714;8.738;2022-09-01T16:01:36;3.25;;;2.95;;
10985;SDS011;5546;48.714;8.738;2022-09-01T16:04:06;3.28;;;3.00;;
10985;SDS011;5546;48.714;8.738;2022-09-01T16:06:35;6.13;;;3.20;;
10985;SDS011;5546;48.714;8.738;2022-09-01T16:09:02;6.90;;;3.15;;
10985;SDS011;5546;48.714;8.738;2022-09-01T16:11:28;3.05;;;2.85;;
10985;SDS011;5546;48.714;8.738;2022-09-01T16:13:55;3.60;;;2.90;;
10985;SDS011;5546;48.714;8.738;2022-09-01T16:24:21;3.67;;;2.95;;
10985;SDS011;5546;48.714;8.738;2022-09-01T16:26:47;3.28;;;3.00;;